createdAt,value
2018-09-30T00:00:14.026Z,98718.44
2018-09-30T00:02:44.475Z,98717.19
2018-09-30T00:05:14.914Z,98715.55
2018-09-30T00:07:45.974Z,98715.59
2018-09-30T00:10:16.276Z,98712.63
2018-09-30T00:12:47.647Z,98713.48
2018-09-30T00:15:18.104Z,98714.80
2018-09-30T00:17:48.539Z,98713.94
2018-09-30T00:20:18.908Z,98716.52
2018-09-30T00:22:49.226Z,98717.38
2018-09-30T00:25:24.743Z,98711.40
2018-09-30T00:27:55.167Z,98713.11
2018-09-30T00:30:25.428Z,98716.15
2018-09-30T00:32:58.118Z,98715.72
2018-09-30T00:35:29.159Z,98707.16
2018-09-30T00:37:59.502Z,98713.17
2018-09-30T00:40:29.846Z,98707.59
2018-09-30T00:43:00.174Z,98702.47
2018-09-30T00:45:30.537Z,98694.31
2018-09-30T00:48:00.939Z,98697.31
2018-09-30T00:50:31.352Z,98694.28
2018-09-30T00:53:01.841Z,98688.28
2018-09-30T00:55:32.250Z,98689.11
2018-09-30T00:58:02.882Z,98688.30
2018-09-30T01:00:33.692Z,98679.30
2018-09-30T01:03:04.679Z,98680.55
2018-09-30T01:05:35.001Z,98682.73
2018-09-30T01:08:07.810Z,98683.63
2018-09-30T01:10:38.367Z,98675.50
2018-09-30T01:13:08.696Z,98676.36
2018-09-30T01:15:39.050Z,98674.64
2018-09-30T01:18:09.377Z,98676.38
2018-09-30T01:20:39.664Z,98672.54
2018-09-30T01:23:09.967Z,98672.52
2018-09-30T01:25:40.259Z,98672.09
2018-09-30T01:28:10.589Z,98675.11
2018-09-30T01:30:40.999Z,98675.14
2018-09-30T01:33:11.973Z,98687.57
2018-09-30T01:35:42.494Z,98676.84
2018-09-30T01:38:12.785Z,98684.10
2018-09-30T01:40:43.184Z,98683.68
2018-09-30T01:43:13.628Z,98684.56
2018-09-30T01:45:43.974Z,98687.56
2018-09-30T01:48:14.267Z,98681.10
2018-09-30T01:50:44.563Z,98681.53
2018-09-30T01:53:14.868Z,98671.66
2018-09-30T01:55:45.122Z,98667.80
2018-09-30T01:58:15.452Z,98668.22
2018-09-30T02:00:45.797Z,98670.83
2018-09-30T02:03:16.077Z,98667.42
2018-09-30T02:05:46.415Z,98671.29
2018-09-30T02:08:16.771Z,98658.00
2018-09-30T02:10:47.176Z,98658.42
2018-09-30T02:13:17.438Z,98661.44
2018-09-30T02:15:47.723Z,98658.44
2018-09-30T02:18:18.151Z,98658.01
2018-09-30T02:20:48.423Z,98655.88
2018-09-30T02:23:19.966Z,98650.30
2018-09-30T02:25:50.294Z,98651.13
2018-09-30T02:28:20.636Z,98650.30
2018-09-30T02:30:50.948Z,98649.85
2018-09-30T02:33:21.202Z,98643.42
2018-09-30T02:35:51.853Z,98646.88
2018-09-30T02:38:22.105Z,98641.31
2018-09-30T02:40:52.322Z,98637.45
2018-09-30T02:43:22.731Z,98639.99
2018-09-30T02:45:53.000Z,98640.44
2018-09-30T02:48:23.357Z,98637.01
2018-09-30T02:50:53.647Z,98636.58
2018-09-30T02:53:24.152Z,98632.70
2018-09-30T02:55:54.433Z,98630.13
2018-09-30T02:58:24.667Z,98625.42
2018-09-30T03:00:55.013Z,98626.72
2018-09-30T03:03:25.283Z,98628.85
2018-09-30T03:05:55.566Z,98624.13
2018-09-30T03:08:31.598Z,98622.41
2018-09-30T03:11:01.970Z,98620.69
2018-09-30T03:13:32.310Z,98617.27
2018-09-30T03:16:03.436Z,98612.58
2018-09-30T03:18:34.630Z,98607.02
2018-09-30T03:21:04.905Z,98603.14
2018-09-30T03:23:35.155Z,98606.12
2018-09-30T03:26:05.428Z,98608.70
2018-09-30T03:28:35.644Z,98603.53
2018-09-30T03:31:06.015Z,98603.11
2018-09-30T03:33:36.791Z,98596.25
2018-09-30T03:36:08.099Z,98598.84
2018-09-30T03:38:38.322Z,98590.26
2018-09-30T03:41:08.731Z,98590.25
2018-09-30T03:43:39.035Z,98586.41
2018-09-30T03:46:09.297Z,98587.70
2018-09-30T03:48:39.603Z,98590.70
2018-09-30T03:51:11.024Z,98591.13
2018-09-30T03:53:41.359Z,98584.28
2018-09-30T03:56:11.673Z,98578.72
2018-09-30T03:58:41.993Z,98581.28
2018-09-30T04:01:12.384Z,98581.70
2018-09-30T04:03:42.995Z,98580.83
2018-09-30T04:06:13.412Z,98580.38
2018-09-30T04:08:43.789Z,98585.09
2018-09-30T04:11:14.141Z,98579.08
2018-09-30T04:13:44.475Z,98571.37
2018-09-30T04:16:14.759Z,98567.54
2018-09-30T04:18:45.130Z,98567.52
2018-09-30T04:21:15.569Z,98561.48
2018-09-30T04:23:45.875Z,98557.65
2018-09-30T04:26:16.185Z,98552.51
2018-09-30T04:28:46.473Z,98555.09
2018-09-30T04:31:16.800Z,98549.95
2018-09-30T04:33:47.127Z,98549.11
2018-09-30T04:36:17.651Z,98544.84
2018-09-30T04:38:47.903Z,98536.31
2018-09-30T04:41:21.913Z,98537.13
2018-09-30T04:43:52.193Z,98535.43
2018-09-30T04:46:22.516Z,98537.14
2018-09-30T04:48:52.927Z,98534.97
2018-09-30T04:51:23.215Z,98540.51
2018-09-30T04:53:53.519Z,98531.97
2018-09-30T04:56:23.761Z,98528.55
2018-09-30T04:58:54.187Z,98529.85
2018-09-30T05:01:24.555Z,98531.57
2018-09-30T05:03:54.959Z,98532.85
2018-09-30T05:06:25.633Z,98532.85
2018-09-30T05:08:55.979Z,98536.28
2018-09-30T05:11:26.465Z,98535.00
2018-09-30T05:13:56.823Z,98539.69
2018-09-30T05:16:27.258Z,98537.13
2018-09-30T05:18:57.988Z,98539.30
2018-09-30T05:21:28.350Z,98535.00
2018-09-30T05:23:59.169Z,98538.86
2018-09-30T05:26:29.421Z,98534.12
2018-09-30T05:28:59.730Z,98530.71
2018-09-30T05:31:30.051Z,98527.73
2018-09-30T05:34:00.491Z,98526.88
2018-09-30T05:36:30.814Z,98527.73
2018-09-30T05:39:01.380Z,98531.59
2018-09-30T05:44:32.132Z,98528.61
2018-09-30T05:47:03.014Z,98525.20
2018-09-30T05:49:33.875Z,98522.64
2018-09-30T05:52:04.000Z,98519.23
2018-09-30T05:54:34.103Z,98517.52
2018-09-30T05:57:04.211Z,98523.85
2018-09-30T05:59:34.293Z,98509.86
2018-09-30T06:02:04.729Z,98514.74
2018-09-30T06:04:35.266Z,98512.05
2018-09-30T06:07:09.264Z,98502.60
2018-09-30T06:09:39.723Z,98505.72
2018-09-30T06:12:18.874Z,98510.45
2018-09-30T06:14:52.624Z,98505.36
2018-09-30T06:17:27.790Z,98507.13
2018-09-30T06:19:58.545Z,98510.13
2018-09-30T06:22:28.777Z,98510.07
2018-09-30T06:24:58.868Z,98509.11
2018-09-30T06:27:28.982Z,98512.41
2018-09-30T06:29:59.084Z,98506.23
2018-09-30T06:32:30.013Z,98504.36
2018-09-30T06:35:00.144Z,98500.79
2018-09-30T06:37:30.369Z,98505.86
2018-09-30T06:40:00.502Z,98500.94
2018-09-30T06:42:30.632Z,98500.64
2018-09-30T06:45:00.897Z,98500.22
2018-09-30T06:47:31.035Z,98497.63
2018-09-30T06:50:04.241Z,98488.36
2018-09-30T06:52:34.609Z,98481.04
2018-09-30T06:55:04.940Z,98471.73
2018-09-30T06:57:35.415Z,98481.27
2018-09-30T07:00:05.999Z,98472.14
2018-09-30T07:02:36.182Z,98467.37
2018-09-30T07:05:06.381Z,98468.98
2018-09-30T07:07:36.554Z,98465.44
2018-09-30T07:10:06.709Z,98461.67
2018-09-30T07:12:36.910Z,98461.70
2018-09-30T07:15:07.100Z,98458.43
2018-09-30T07:17:37.206Z,98457.85
2018-09-30T07:20:10.754Z,98458.19
2018-09-30T07:22:40.873Z,98459.51
2018-09-30T07:25:10.955Z,98464.38
2018-09-30T07:27:41.114Z,98470.36
2018-09-30T07:30:11.214Z,98473.84
2018-09-30T07:32:41.403Z,98468.81
2018-09-30T07:35:11.698Z,98465.09
2018-09-30T07:37:42.086Z,98454.59
2018-09-30T07:40:13.197Z,98456.01
2018-09-30T07:42:44.474Z,98453.69
2018-09-30T07:45:15.621Z,98458.70
2018-09-30T07:47:45.918Z,98450.53
2018-09-30T07:50:16.460Z,98447.11
2018-09-30T07:52:47.565Z,98445.41
2018-09-30T07:55:18.956Z,98444.39
2018-09-30T07:57:49.365Z,98445.84
2018-09-30T08:00:19.990Z,98443.48
2018-09-30T08:02:50.755Z,98434.53
2018-09-30T08:05:21.595Z,98442.05
2018-09-30T08:07:55.122Z,98430.56
2018-09-30T08:10:26.335Z,98432.89
2018-09-30T08:12:56.515Z,98432.14
2018-09-30T08:15:26.954Z,98427.39
2018-09-30T08:17:57.319Z,98418.55
2018-09-30T08:20:27.471Z,98416.83
2018-09-30T08:22:58.412Z,98412.22
2018-09-30T08:28:07.198Z,98412.52
2018-09-30T08:30:37.955Z,98401.58
2018-09-30T08:33:09.097Z,98392.78
2018-09-30T08:35:40.177Z,98386.85
2018-09-30T08:38:16.118Z,98384.13
2018-09-30T08:40:52.114Z,98385.87
2018-09-30T08:43:23.406Z,98376.75
2018-09-30T08:45:54.020Z,98381.48
2018-09-30T08:48:24.476Z,98380.31
2018-09-30T08:50:55.538Z,98380.37
2018-09-30T08:53:27.122Z,98373.66
2018-09-30T08:55:58.271Z,98375.55
2018-09-30T08:58:30.040Z,98373.92
2018-09-30T09:01:00.806Z,98366.25
2018-09-30T09:03:31.626Z,98372.07
2018-09-30T09:06:02.173Z,98357.69
2018-09-30T09:08:33.116Z,98359.34
2018-09-30T09:11:04.042Z,98367.74
2018-09-30T09:13:35.365Z,98362.48
2018-09-30T09:16:06.549Z,98358.52
2018-09-30T09:18:37.506Z,98355.98
2018-09-30T09:21:08.146Z,98353.94
2018-09-30T09:23:39.036Z,98341.13
2018-09-30T09:26:10.384Z,98339.45
2018-09-30T09:28:41.811Z,98333.77
2018-09-30T09:31:14.279Z,98324.62
2018-09-30T09:33:44.884Z,98312.66
2018-09-30T09:36:15.402Z,98308.36
2018-09-30T09:38:46.617Z,98306.34
2018-09-30T09:41:17.268Z,98302.16
2018-09-30T09:43:48.179Z,98307.19
2018-09-30T09:46:24.830Z,98306.39
2018-09-30T09:48:55.199Z,98307.82
2018-09-30T09:51:25.720Z,98302.20
2018-09-30T09:53:56.172Z,98302.05
2018-09-30T09:56:26.809Z,98290.77
2018-09-30T09:58:57.260Z,98285.84
2018-09-30T10:01:27.701Z,98281.04
2018-09-30T10:03:58.157Z,98282.08
2018-09-30T10:06:28.639Z,98271.53
2018-09-30T10:08:59.430Z,98260.13
2018-09-30T10:11:30.588Z,98253.78
2018-09-30T10:14:01.372Z,98249.50
2018-09-30T10:16:31.812Z,98249.78
2018-09-30T10:19:02.865Z,98247.13
2018-09-30T10:21:33.345Z,98235.18
2018-09-30T10:24:03.797Z,98245.09
2018-09-30T10:26:34.252Z,98241.50
2018-09-30T10:29:04.640Z,98239.33
2018-09-30T10:31:35.141Z,98226.26
2018-09-30T10:34:05.657Z,98213.88
2018-09-30T10:36:36.136Z,98216.02
2018-09-30T10:39:09.431Z,98207.45
2018-09-30T10:41:40.404Z,98200.50
2018-09-30T10:44:10.996Z,98198.81
2018-09-30T10:46:41.443Z,98205.05
2018-09-30T10:49:11.979Z,98205.47
2018-09-30T10:51:42.387Z,98198.95
2018-09-30T10:54:12.965Z,98197.16
2018-09-30T10:56:43.346Z,98193.97
2018-09-30T10:59:13.681Z,98191.21
2018-09-30T11:01:44.023Z,98185.34
2018-09-30T11:04:14.457Z,98186.08
2018-09-30T11:06:44.949Z,98176.49
2018-09-30T11:09:15.383Z,98172.80
2018-09-30T11:11:47.198Z,98177.07
2018-09-30T11:14:17.705Z,98176.20
2018-09-30T11:16:48.219Z,98158.34
2018-09-30T11:19:18.726Z,98151.98
2018-09-30T11:21:49.184Z,98148.13
2018-09-30T11:24:19.856Z,98142.67
2018-09-30T11:26:51.195Z,98139.70
2018-09-30T11:29:22.630Z,98124.05
2018-09-30T11:31:53.256Z,98122.69
2018-09-30T11:34:24.074Z,98116.73
2018-09-30T11:36:54.849Z,98114.57
2018-09-30T11:39:25.646Z,98106.55
2018-09-30T11:41:56.878Z,98101.38
2018-09-30T11:44:34.178Z,98105.63
2018-09-30T11:47:05.553Z,98096.84
2018-09-30T11:49:36.603Z,98091.95
2018-09-30T11:52:08.533Z,98086.48
2018-09-30T11:54:40.868Z,98083.05
2018-09-30T11:57:11.762Z,98080.23
2018-09-30T11:59:43.125Z,98070.36
2018-09-30T12:02:15.776Z,98073.20
2018-09-30T12:04:46.678Z,98063.98
2018-09-30T12:07:17.717Z,98055.75
2018-09-30T12:09:48.441Z,98049.59
2018-09-30T12:12:19.313Z,98050.32
2018-09-30T12:14:52.417Z,98046.85
2018-09-30T12:17:23.458Z,98044.20
2018-09-30T12:19:53.935Z,98044.05
2018-09-30T12:22:24.708Z,98042.50
2018-09-30T12:24:55.644Z,98038.64
2018-09-30T12:27:26.277Z,98039.05
2018-09-30T12:29:56.774Z,98025.03
2018-09-30T12:32:27.308Z,98021.62
2018-09-30T12:34:57.826Z,98021.28
2018-09-30T12:37:28.324Z,98023.59
2018-09-30T12:39:58.855Z,98005.69
2018-09-30T12:42:29.450Z,98017.11
2018-09-30T12:44:59.821Z,98008.19
2018-09-30T12:47:30.401Z,98008.55
2018-09-30T12:50:00.865Z,98001.88
2018-09-30T12:52:31.250Z,97995.53
2018-09-30T12:55:01.779Z,97998.94
2018-09-30T12:57:32.361Z,97986.95
2018-09-30T13:00:03.374Z,97981.56
2018-09-30T13:02:34.739Z,97987.13
2018-09-30T13:05:05.783Z,97990.86
2018-09-30T13:07:42.592Z,97994.06
2018-09-30T13:10:16.298Z,97997.47
2018-09-30T13:12:46.868Z,97988.71
2018-09-30T13:15:17.320Z,97987.81
2018-09-30T13:17:48.136Z,97986.11
2018-09-30T13:20:18.639Z,97975.44
2018-09-30T13:22:49.034Z,97979.04
2018-09-30T13:25:21.278Z,97975.22
2018-09-30T13:27:51.807Z,97969.08
2018-09-30T13:30:22.364Z,97964.23
2018-09-30T13:32:52.760Z,97975.12
2018-09-30T13:35:23.239Z,97964.48
2018-09-30T13:37:53.967Z,97966.09
2018-09-30T13:40:24.959Z,97949.90
2018-09-30T13:42:55.362Z,97953.36
2018-09-30T13:45:25.849Z,97944.83
2018-09-30T13:47:56.321Z,97942.80
2018-09-30T13:50:26.819Z,97933.52
2018-09-30T13:52:57.215Z,97933.63
2018-09-30T13:55:27.668Z,97937.16
2018-09-30T13:57:58.175Z,97933.84
2018-09-30T14:00:28.645Z,97935.16
2018-09-30T14:02:59.122Z,97933.44
2018-09-30T14:05:29.863Z,97933.97
2018-09-30T14:08:00.412Z,97927.20
2018-09-30T14:10:30.903Z,97922.28
2018-09-30T14:13:01.389Z,97912.80
2018-09-30T14:15:31.940Z,97924.33
2018-09-30T14:18:02.336Z,97912.83
2018-09-30T14:20:33.130Z,97907.88
2018-09-30T14:23:03.806Z,97901.09
2018-09-30T14:25:34.477Z,97904.63
2018-09-30T14:28:05.092Z,97895.85
2018-09-30T14:30:35.752Z,97899.44
2018-09-30T14:33:06.596Z,97894.08
2018-09-30T14:35:37.162Z,97888.42
2018-09-30T14:38:07.980Z,97887.86
2018-09-30T14:40:38.471Z,97895.28
2018-09-30T14:43:09.150Z,97890.09
2018-09-30T14:45:39.775Z,97896.11
2018-09-30T14:48:10.496Z,97885.42
2018-09-30T14:50:41.160Z,97885.69
2018-09-30T14:53:12.305Z,97881.80
2018-09-30T14:55:42.924Z,97889.95
2018-09-30T14:58:13.462Z,97877.91
2018-09-30T15:00:44.089Z,97879.17
2018-09-30T15:03:14.667Z,97875.91
2018-09-30T15:05:45.314Z,97879.81
2018-09-30T15:08:16.245Z,97879.06
2018-09-30T15:10:46.968Z,97875.33
2018-09-30T15:13:17.464Z,97877.41
2018-09-30T15:15:48.339Z,97871.23
2018-09-30T15:18:18.966Z,97862.70
2018-09-30T15:20:50.907Z,97866.37
2018-09-30T15:23:21.417Z,97860.69
2018-09-30T15:25:52.061Z,97860.38
2018-09-30T15:28:22.545Z,97855.72
2018-09-30T15:30:53.198Z,97855.15
2018-09-30T15:33:23.720Z,97837.05
2018-09-30T15:35:54.338Z,97836.98
2018-09-30T15:38:25.527Z,97843.00
2018-09-30T15:40:56.031Z,97839.22
2018-09-30T15:43:26.427Z,97835.31
2018-09-30T15:45:57.025Z,97835.77
2018-09-30T15:48:27.680Z,97828.48
2018-09-30T15:50:58.211Z,97828.91
2018-09-30T15:53:28.721Z,97829.54
2018-09-30T15:55:59.122Z,97831.78
2018-09-30T15:58:29.726Z,97834.36
2018-09-30T16:01:00.258Z,97832.06
2018-09-30T16:03:30.654Z,97828.52
2018-09-30T16:06:06.920Z,97828.37
2018-09-30T16:08:37.333Z,97830.20
2018-09-30T16:11:07.940Z,97835.69
2018-09-30T16:13:38.446Z,97830.98
2018-09-30T16:16:09.415Z,97827.16
2018-09-30T16:18:39.805Z,97831.39
2018-09-30T16:21:10.547Z,97827.50
2018-09-30T16:23:40.818Z,97828.57
2018-09-30T16:26:11.288Z,97829.64
2018-09-30T16:28:42.425Z,97827.94
2018-09-30T16:31:12.809Z,97826.47
2018-09-30T16:33:43.422Z,97828.83
2018-09-30T16:36:18.395Z,97829.47
2018-09-30T16:38:48.952Z,97829.80
2018-09-30T16:41:19.411Z,97826.59
2018-09-30T16:43:49.771Z,97829.52
2018-09-30T16:46:29.063Z,97833.92
2018-09-30T16:48:59.591Z,97834.16
2018-09-30T16:51:30.123Z,97839.27
2018-09-30T16:54:00.641Z,97840.27
2018-09-30T16:56:31.707Z,97835.01
2018-09-30T16:59:02.134Z,97839.08
2018-09-30T17:01:32.677Z,97836.22
2018-09-30T17:04:03.096Z,97839.19
2018-09-30T17:06:33.626Z,97838.56
2018-09-30T17:09:05.671Z,97841.30
2018-09-30T17:11:36.176Z,97846.17
2018-09-30T17:14:06.578Z,97840.12
2018-09-30T17:16:37.122Z,97842.05
2018-09-30T17:19:12.010Z,97838.97
2018-09-30T17:21:42.536Z,97841.83
2018-09-30T17:24:12.913Z,97841.28
2018-09-30T17:26:43.469Z,97847.69
2018-09-30T17:29:13.932Z,97846.80
2018-09-30T17:31:45.340Z,97850.64
2018-09-30T17:34:16.097Z,97844.33
2018-09-30T17:36:46.880Z,97846.91
2018-09-30T17:39:17.315Z,97846.13
2018-09-30T17:41:48.319Z,97847.53
2018-09-30T17:44:18.766Z,97846.03
2018-09-30T17:46:56.836Z,97847.16
2018-09-30T17:49:27.126Z,97845.55
2018-09-30T17:51:59.156Z,97847.96
2018-09-30T17:54:29.764Z,97843.17
2018-09-30T17:57:06.133Z,97847.73
2018-09-30T17:59:37.007Z,97844.44
2018-09-30T18:02:07.560Z,97841.97
2018-09-30T18:04:38.135Z,97843.95
2018-09-30T18:07:08.642Z,97842.70
2018-09-30T18:09:38.993Z,97838.64
2018-09-30T18:12:09.645Z,97835.34
2018-09-30T18:14:40.276Z,97835.62
2018-09-30T18:17:14.675Z,97831.28
2018-09-30T18:19:45.081Z,97831.48
2018-09-30T18:22:15.884Z,97828.64
2018-09-30T18:24:46.604Z,97834.11
2018-09-30T18:27:21.154Z,97830.33
2018-09-30T18:29:51.733Z,97831.22
2018-09-30T18:32:22.128Z,97832.14
2018-09-30T18:34:58.663Z,97823.60
2018-09-30T18:37:29.777Z,97827.48
2018-09-30T18:40:02.063Z,97817.45
2018-09-30T18:42:34.827Z,97819.67
2018-09-30T18:45:05.599Z,97818.65
2018-09-30T18:47:39.113Z,97818.14
2018-09-30T18:50:09.828Z,97821.05
2018-09-30T18:52:42.288Z,97816.80
2018-09-30T18:55:12.912Z,97817.86
2018-09-30T18:57:46.321Z,97820.63
2018-09-30T19:03:10.635Z,97819.93
2018-09-30T19:05:42.793Z,97820.15
2018-09-30T19:08:14.760Z,97816.55
2018-09-30T19:10:45.227Z,97812.96
2018-09-30T19:13:15.814Z,97812.72
2018-09-30T19:15:47.360Z,97812.50
2018-09-30T19:18:17.776Z,97809.65
2018-09-30T19:20:48.334Z,97819.95
2018-09-30T19:23:19.069Z,97811.06
2018-09-30T19:25:49.528Z,97810.42
2018-09-30T19:28:19.983Z,97804.08
2018-09-30T19:30:50.563Z,97800.55
2018-09-30T19:33:21.020Z,97793.19
2018-09-30T19:35:51.446Z,97794.84
2018-09-30T19:38:21.922Z,97794.03
2018-09-30T19:40:52.611Z,97792.34
2018-09-30T19:43:23.000Z,97789.86
2018-09-30T19:45:53.577Z,97788.02
2018-09-30T19:48:24.106Z,97790.39
2018-09-30T19:50:54.480Z,97782.69
2018-09-30T19:53:24.983Z,97779.15
2018-09-30T19:55:55.634Z,97776.68
2018-09-30T19:58:26.071Z,97783.03
2018-09-30T20:00:56.690Z,97778.52
2018-09-30T20:03:27.181Z,97775.13
2018-09-30T20:05:57.688Z,97780.86
2018-09-30T20:08:28.152Z,97774.97
2018-09-30T20:10:58.778Z,97769.98
2018-09-30T20:13:29.258Z,97775.66
2018-09-30T20:15:59.813Z,97770.24
2018-09-30T20:18:30.931Z,97771.83
2018-09-30T20:21:01.325Z,97773.59
2018-09-30T20:23:32.075Z,97771.61
2018-09-30T20:26:02.632Z,97771.91
2018-09-30T20:28:37.419Z,97771.33
2018-09-30T20:31:07.654Z,97766.67
2018-09-30T20:33:38.216Z,97767.26
2018-09-30T20:36:08.595Z,97767.09
2018-09-30T20:38:39.034Z,97771.91
2018-09-30T20:41:09.448Z,97778.88
2018-09-30T20:43:40.011Z,97772.72
2018-09-30T20:46:11.239Z,97778.60
2018-09-30T20:48:41.694Z,97780.48
2018-09-30T20:51:13.180Z,97777.88
2018-09-30T20:53:43.712Z,97779.19
2018-09-30T20:56:14.317Z,97775.00
2018-09-30T20:58:47.641Z,97783.73
2018-09-30T21:01:18.684Z,97780.74
2018-09-30T21:03:49.082Z,97780.23
2018-09-30T21:06:30.656Z,97779.66
2018-09-30T21:09:01.151Z,97773.88
2018-09-30T21:11:31.540Z,97781.11
2018-09-30T21:14:02.044Z,97785.34
2018-09-30T21:16:32.573Z,97786.45
2018-09-30T21:19:03.063Z,97785.20
2018-09-30T21:21:33.576Z,97787.59
2018-09-30T21:24:04.373Z,97789.55
2018-09-30T21:26:35.059Z,97792.14
2018-09-30T21:29:05.643Z,97791.05
2018-09-30T21:31:36.175Z,97785.06
2018-09-30T21:34:07.632Z,97783.70
2018-09-30T21:36:38.160Z,97782.18
2018-09-30T21:39:10.386Z,97778.88
2018-09-30T21:41:40.770Z,97773.55
2018-09-30T21:44:12.198Z,97773.94
2018-09-30T21:46:42.707Z,97769.20
2018-09-30T21:49:13.849Z,97767.05
2018-09-30T21:51:44.278Z,97768.46
2018-09-30T21:54:14.902Z,97763.64
2018-09-30T21:56:45.332Z,97754.86
2018-09-30T21:59:17.381Z,97751.33
2018-09-30T22:01:47.964Z,97759.38
2018-09-30T22:04:18.341Z,97758.77
2018-09-30T22:06:48.751Z,97759.02
2018-09-30T22:09:22.310Z,97758.79
2018-09-30T22:11:52.825Z,97760.37
2018-09-30T22:14:23.687Z,97759.24
2018-09-30T22:16:54.173Z,97755.59
2018-09-30T22:19:24.923Z,97752.70
2018-09-30T22:21:55.209Z,97754.56
2018-09-30T22:24:25.553Z,97757.27
2018-09-30T22:26:56.031Z,97752.16
2018-09-30T22:29:26.471Z,97763.14
2018-09-30T22:31:56.857Z,97761.19
2018-09-30T22:34:28.090Z,97756.90
2018-09-30T22:36:58.729Z,97750.12
2018-09-30T22:39:29.069Z,97757.53
2018-09-30T22:41:59.580Z,97749.86
2018-09-30T22:44:30.055Z,97744.37
2018-09-30T22:47:00.399Z,97746.06
2018-09-30T22:49:30.923Z,97739.53
2018-09-30T22:52:03.393Z,97736.83
2018-09-30T22:54:33.738Z,97734.73
2018-09-30T22:57:04.892Z,97732.64
2018-09-30T22:59:35.225Z,97730.19
2018-09-30T23:02:05.891Z,97728.64
2018-09-30T23:04:36.347Z,97736.27
2018-09-30T23:07:06.700Z,97733.80
2018-09-30T23:09:37.079Z,97733.33
2018-09-30T23:12:08.001Z,97741.50
2018-09-30T23:14:38.556Z,97743.03
2018-09-30T23:17:09.546Z,97738.53
2018-09-30T23:19:39.948Z,97737.69
2018-09-30T23:22:10.314Z,97741.12
2018-09-30T23:24:40.696Z,97741.12
2018-09-30T23:27:11.018Z,97735.94
2018-09-30T23:29:41.392Z,97737.73
2018-09-30T23:32:11.760Z,97735.98
2018-09-30T23:34:42.137Z,97737.87
2018-09-30T23:37:13.996Z,97736.31
2018-09-30T23:39:46.329Z,97740.27
2018-09-30T23:42:16.764Z,97746.22
2018-09-30T23:44:47.756Z,97738.62
2018-09-30T23:47:18.047Z,97733.53
2018-09-30T23:49:48.481Z,97738.36
2018-09-30T23:52:18.800Z,97729.47
2018-09-30T23:54:52.368Z,97734.87
2018-09-30T23:57:22.689Z,97734.56
2018-09-30T23:59:53.161Z,97732.06
